sensor_id;sensor_type;location;lat;lon;timestamp;pressure;altitude;pressure_sealevel;temperature;humidity
36092;BME280;22147;52.388;13.390;2023-07-20T00:01:17;100415.50;;;14.23;100.00
36092;BME280;22147;52.388;13.390;2023-07-20T00:03:47;100412.25;;;14.21;100.00
36092;BME280;22147;52.388;13.390;2023-07-20T00:06:26;100413.34;;;14.16;100.00
36092;BME280;22147;52.388;13.390;2023-07-20T00:08:56;100422.53;;;14.17;100.00
36092;BME280;22147;52.388;13.390;2023-07-20T00:11:27;100424.41;;;14.13;100.00
36092;BME280;22147;52.388;13.390;2023-07-20T00:13:56;100422.78;;;14.12;100.00
36092;BME280;22147;52.388;13.390;2023-07-20T00:16:24;100420.38;;;14.10;100.00
36092;BME280;22147;52.388;13.390;2023-07-20T00:18:52;100415.59;;;14.11;100.00
36092;BME280;22147;52.388;13.390;2023-07-20T00:21:21;100407.94;;;14.08;100.00
36092;BME280;22147;52.388;13.390;2023-07-20T00:23:49;100414.69;;;14.07;100.00
36092;BME280;22147;52.388;13.390;2023-07-20T00:26:18;100411.09;;;14.06;100.00
36092;BME280;22147;52.388;13.390;2023-07-20T00:28:46;100412.63;;;14.03;100.00
36092;BME280;22147;52.388;13.390;2023-07-20T00:31:17;100409.38;;;14.01;100.00
36092;BME280;22147;52.388;13.390;2023-07-20T00:33:46;100406.94;;;14.00;100.00
36092;BME280;22147;52.388;13.390;2023-07-20T00:36:14;100408.19;;;14.02;100.00
36092;BME280;22147;52.388;13.390;2023-07-20T00:38:43;100408.47;;;13.97;100.00
36092;BME280;22147;52.388;13.390;2023-07-20T00:41:11;100405.22;;;13.95;100.00
36092;BME280;22147;52.388;13.390;2023-07-20T00:43:43;100417.53;;;13.94;100.00
36092;BME280;22147;52.388;13.390;2023-07-20T00:46:14;100408.38;;;13.94;100.00
36092;BME280;22147;52.388;13.390;2023-07-20T00:48:44;100407.47;;;13.90;100.00
36092;BME280;22147;52.388;13.390;2023-07-20T00:51:15;100415.03;;;13.89;100.00
36092;BME280;22147;52.388;13.390;2023-07-20T00:53:46;100418.16;;;13.88;100.00
36092;BME280;22147;52.388;13.390;2023-07-20T00:56:16;100413.38;;;13.88;100.00
36092;BME280;22147;52.388;13.390;2023-07-20T00:58:47;100414.56;;;13.87;100.00
36092;BME280;22147;52.388;13.390;2023-07-20T01:01:17;100411.78;;;13.87;100.00
36092;BME280;22147;52.388;13.390;2023-07-20T01:03:48;100414.56;;;13.87;100.00
36092;BME280;22147;52.388;13.390;2023-07-20T01:06:26;100419.25;;;13.83;100.00
36092;BME280;22147;52.388;13.390;2023-07-20T01:09:28;100417.16;;;13.80;100.00
36092;BME280;22147;52.388;13.390;2023-07-20T01:12:26;100419.53;;;13.78;100.00
36092;BME280;22147;52.388;13.390;2023-07-20T01:15:03;100420.66;;;13.77;100.00
36092;BME280;22147;52.388;13.390;2023-07-20T01:17:34;100422.66;;;13.76;100.00
36092;BME280;22147;52.388;13.390;2023-07-20T01:20:14;100423.34;;;13.73;100.00
36092;BME280;22147;52.388;13.390;2023-07-20T01:29:27;100414.06;;;13.69;100.00
36092;BME280;22147;52.388;13.390;2023-07-20T01:32:16;100423.16;;;13.66;100.00
36092;BME280;22147;52.388;13.390;2023-07-20T01:34:52;100428.03;;;13.69;100.00
36092;BME280;22147;52.388;13.390;2023-07-20T01:37:26;100425.97;;;13.66;100.00
36092;BME280;22147;52.388;13.390;2023-07-20T01:40:00;100418.75;;;13.65;100.00
36092;BME280;22147;52.388;13.390;2023-07-20T01:42:31;100420.72;;;13.64;100.00
36092;BME280;22147;52.388;13.390;2023-07-20T01:45:01;100418.28;;;13.63;100.00
36092;BME280;22147;52.388;13.390;2023-07-20T01:47:32;100415.41;;;13.59;100.00
36092;BME280;22147;52.388;13.390;2023-07-20T01:50:02;100410.53;;;13.56;100.00
36092;BME280;22147;52.388;13.390;2023-07-20T01:52:32;100412.06;;;13.54;100.00
36092;BME280;22147;52.388;13.390;2023-07-20T01:55:03;100412.88;;;13.54;100.00
36092;BME280;22147;52.388;13.390;2023-07-20T01:57:34;100412.88;;;13.54;100.00
36092;BME280;22147;52.388;13.390;2023-07-20T02:00:05;100406.84;;;13.52;100.00
36092;BME280;22147;52.388;13.390;2023-07-20T02:02:36;100414.41;;;13.52;100.00
36092;BME280;22147;52.388;13.390;2023-07-20T02:05:07;100411.59;;;13.52;100.00
36092;BME280;22147;52.388;13.390;2023-07-20T02:07:35;100404.41;;;13.51;100.00
36092;BME280;22147;52.388;13.390;2023-07-20T02:10:04;100406.03;;;13.52;100.00
36092;BME280;22147;52.388;13.390;2023-07-20T02:12:32;100408.72;;;13.48;100.00
36092;BME280;22147;52.388;13.390;2023-07-20T02:15:02;100411.03;;;13.46;100.00
36092;BME280;22147;52.388;13.390;2023-07-20T02:17:32;100410.16;;;13.42;100.00
36092;BME280;22147;52.388;13.390;2023-07-20T02:20:00;100408.06;;;13.39;100.00
36092;BME280;22147;52.388;13.390;2023-07-20T02:22:29;100407.16;;;13.35;100.00
36092;BME280;22147;52.388;13.390;2023-07-20T02:24:57;100410.66;;;13.32;100.00
36092;BME280;22147;52.388;13.390;2023-07-20T02:27:25;100404.13;;;13.28;100.00
36092;BME280;22147;52.388;13.390;2023-07-20T02:29:54;100413.09;;;13.21;100.00
36092;BME280;22147;52.388;13.390;2023-07-20T02:32:22;100406.97;;;13.15;100.00
36092;BME280;22147;52.388;13.390;2023-07-20T02:34:51;100404.06;;;13.12;100.00
36092;BME280;22147;52.388;13.390;2023-07-20T02:37:19;100412.41;;;13.12;100.00
36092;BME280;22147;52.388;13.390;2023-07-20T02:39:47;100414.66;;;13.06;100.00
36092;BME280;22147;52.388;13.390;2023-07-20T02:42:16;100413.38;;;13.03;100.00
36092;BME280;22147;52.388;13.390;2023-07-20T02:44:44;100414.88;;;13.01;100.00
36092;BME280;22147;52.388;13.390;2023-07-20T02:47:13;100425.13;;;12.97;100.00
36092;BME280;22147;52.388;13.390;2023-07-20T02:49:41;100426.97;;;12.93;100.00
36092;BME280;22147;52.388;13.390;2023-07-20T02:52:10;100420.94;;;12.91;100.00
36092;BME280;22147;52.388;13.390;2023-07-20T02:54:40;100432.34;;;12.86;100.00
36092;BME280;22147;52.388;13.390;2023-07-20T02:57:10;100437.00;;;12.81;100.00
36092;BME280;22147;52.388;13.390;2023-07-20T02:59:40;100428.97;;;12.80;100.00
36092;BME280;22147;52.388;13.390;2023-07-20T03:02:10;100432.13;;;12.78;100.00
36092;BME280;22147;52.388;13.390;2023-07-20T03:04:41;100443.63;;;12.77;100.00
36092;BME280;22147;52.388;13.390;2023-07-20T03:07:11;100448.00;;;12.78;100.00
36092;BME280;22147;52.388;13.390;2023-07-20T03:09:41;100440.25;;;12.83;100.00
36092;BME280;22147;52.388;13.390;2023-07-20T03:12:11;100446.41;;;12.89;100.00
36092;BME280;22147;52.388;13.390;2023-07-20T03:14:41;100452.44;;;12.91;100.00
36092;BME280;22147;52.388;13.390;2023-07-20T03:17:11;100450.56;;;12.95;100.00
36092;BME280;22147;52.388;13.390;2023-07-20T03:19:42;100453.00;;;12.97;100.00
36092;BME280;22147;52.388;13.390;2023-07-20T03:22:12;100454.97;;;12.96;100.00
36092;BME280;22147;52.388;13.390;2023-07-20T03:24:43;100458.22;;;12.98;100.00
36092;BME280;22147;52.388;13.390;2023-07-20T03:27:13;100463.06;;;13.01;100.00
36092;BME280;22147;52.388;13.390;2023-07-20T03:29:44;100458.81;;;13.04;100.00
36092;BME280;22147;52.388;13.390;2023-07-20T03:32:14;100466.78;;;13.06;100.00
36092;BME280;22147;52.388;13.390;2023-07-20T03:34:44;100457.41;;;13.10;100.00
36092;BME280;22147;52.388;13.390;2023-07-20T03:37:15;100456.34;;;13.15;100.00
36092;BME280;22147;52.388;13.390;2023-07-20T03:39:46;100457.25;;;13.19;100.00
36092;BME280;22147;52.388;13.390;2023-07-20T03:42:16;100465.72;;;13.22;100.00
36092;BME280;22147;52.388;13.390;2023-07-20T03:44:46;100454.56;;;13.22;100.00
36092;BME280;22147;52.388;13.390;2023-07-20T03:47:17;100457.81;;;13.24;100.00
36092;BME280;22147;52.388;13.390;2023-07-20T03:49:47;100452.03;;;13.30;100.00
36092;BME280;22147;52.388;13.390;2023-07-20T03:52:17;100459.00;;;13.36;100.00
36092;BME280;22147;52.388;13.390;2023-07-20T03:54:48;100454.78;;;13.42;100.00
36092;BME280;22147;52.388;13.390;2023-07-20T03:57:18;100461.38;;;13.50;100.00
36092;BME280;22147;52.388;13.390;2023-07-20T03:59:48;100463.09;;;13.54;100.00
36092;BME280;22147;52.388;13.390;2023-07-20T04:02:18;100467.97;;;13.57;100.00
36092;BME280;22147;52.388;13.390;2023-07-20T04:04:49;100464.47;;;13.60;100.00
36092;BME280;22147;52.388;13.390;2023-07-20T04:07:19;100464.91;;;13.62;100.00
36092;BME280;22147;52.388;13.390;2023-07-20T04:09:49;100467.72;;;13.62;100.00
36092;BME280;22147;52.388;13.390;2023-07-20T04:12:18;100468.50;;;13.63;100.00
36092;BME280;22147;52.388;13.390;2023-07-20T04:14:46;100470.16;;;13.64;100.00
36092;BME280;22147;52.388;13.390;2023-07-20T04:17:14;100467.72;;;13.62;100.00
36092;BME280;22147;52.388;13.390;2023-07-20T04:19:43;100461.78;;;13.64;100.00
36092;BME280;22147;52.388;13.390;2023-07-20T04:22:11;100467.09;;;13.69;100.00
36092;BME280;22147;52.388;13.390;2023-07-20T04:24:40;100465.84;;;13.67;100.00
36092;BME280;22147;52.388;13.390;2023-07-20T04:27:08;100474.19;;;13.67;100.00
36092;BME280;22147;52.388;13.390;2023-07-20T04:29:37;100481.97;;;13.73;100.00
36092;BME280;22147;52.388;13.390;2023-07-20T04:32:06;100478.13;;;13.78;100.00
36092;BME280;22147;52.388;13.390;2023-07-20T04:34:36;100480.47;;;13.76;100.00
36092;BME280;22147;52.388;13.390;2023-07-20T04:37:05;100484.50;;;13.78;100.00
36092;BME280;22147;52.388;13.390;2023-07-20T04:39:33;100483.34;;;13.79;100.00
36092;BME280;22147;52.388;13.390;2023-07-20T04:42:02;100484.25;;;13.83;100.00
36092;BME280;22147;52.388;13.390;2023-07-20T04:44:31;100479.00;;;13.82;100.00
36092;BME280;22147;52.388;13.390;2023-07-20T04:46:59;100479.47;;;13.84;100.00
36092;BME280;22147;52.388;13.390;2023-07-20T04:49:27;100482.72;;;13.86;100.00
36092;BME280;22147;52.388;13.390;2023-07-20T04:51:56;100479.91;;;13.86;100.00
36092;BME280;22147;52.388;13.390;2023-07-20T04:54:24;100480.50;;;13.92;100.00
36092;BME280;22147;52.388;13.390;2023-07-20T04:56:56;100479.75;;;13.95;100.00
36092;BME280;22147;52.388;13.390;2023-07-20T04:59:27;100482.66;;;13.98;100.00
36092;BME280;22147;52.388;13.390;2023-07-20T05:01:57;100489.16;;;14.02;100.00
36092;BME280;22147;52.388;13.390;2023-07-20T05:04:27;100481.22;;;14.04;100.00
36092;BME280;22147;52.388;13.390;2023-07-20T05:07:06;100481.41;;;14.12;100.00
36092;BME280;22147;52.388;13.390;2023-07-20T05:09:37;100487.09;;;14.15;100.00
36092;BME280;22147;52.388;13.390;2023-07-20T05:12:07;100481.34;;;14.24;100.00
36092;BME280;22147;52.388;13.390;2023-07-20T05:14:38;100483.25;;;14.36;100.00
36092;BME280;22147;52.388;13.390;2023-07-20T05:17:08;100486.31;;;14.46;100.00
36092;BME280;22147;52.388;13.390;2023-07-20T05:19:39;100492.06;;;14.54;100.00
36092;BME280;22147;52.388;13.390;2023-07-20T05:22:14;100488.47;;;14.53;100.00
36092;BME280;22147;52.388;13.390;2023-07-20T05:24:44;100493.84;;;14.58;100.00
36092;BME280;22147;52.388;13.390;2023-07-20T05:27:14;100495.16;;;14.64;100.00
36092;BME280;22147;52.388;13.390;2023-07-20T05:29:46;100492.13;;;14.70;100.00
36092;BME280;22147;52.388;13.390;2023-07-20T05:32:16;100498.59;;;14.74;100.00
36092;BME280;22147;52.388;13.390;2023-07-20T05:34:46;100495.63;;;14.82;100.00
36092;BME280;22147;52.388;13.390;2023-07-20T05:37:16;100489.22;;;14.82;100.00
36092;BME280;22147;52.388;13.390;2023-07-20T05:39:47;100492.47;;;14.84;100.00
36092;BME280;22147;52.388;13.390;2023-07-20T05:42:17;100494.09;;;14.85;100.00
36092;BME280;22147;52.388;13.390;2023-07-20T05:44:47;100498.97;;;14.88;100.00
36092;BME280;22147;52.388;13.390;2023-07-20T05:47:19;100500.56;;;14.89;100.00
36092;BME280;22147;52.388;13.390;2023-07-20T05:49:49;100510.75;;;14.97;100.00
36092;BME280;22147;52.388;13.390;2023-07-20T05:52:20;100511.16;;;15.15;100.00
36092;BME280;22147;52.388;13.390;2023-07-20T05:54:50;100507.78;;;15.25;100.00
36092;BME280;22147;52.388;13.390;2023-07-20T05:57:20;100513.59;;;15.17;100.00
36092;BME280;22147;52.388;13.390;2023-07-20T05:59:50;100515.69;;;15.20;100.00
36092;BME280;22147;52.388;13.390;2023-07-20T06:02:21;100512.88;;;15.20;100.00
36092;BME280;22147;52.388;13.390;2023-07-20T06:04:51;100515.69;;;15.20;100.00
36092;BME280;22147;52.388;13.390;2023-07-20T06:07:21;100520.00;;;15.17;100.00
36092;BME280;22147;52.388;13.390;2023-07-20T06:09:50;100520.00;;;15.17;100.00
36092;BME280;22147;52.388;13.390;2023-07-20T06:12:18;100512.63;;;15.09;100.00
36092;BME280;22147;52.388;13.390;2023-07-20T06:14:46;100512.25;;;15.11;100.00
36092;BME280;22147;52.388;13.390;2023-07-20T06:17:15;100510.22;;;15.27;100.00
36092;BME280;22147;52.388;13.390;2023-07-20T06:19:43;100517.75;;;15.42;100.00
36092;BME280;22147;52.388;13.390;2023-07-20T06:22:12;100518.81;;;15.54;100.00
36092;BME280;22147;52.388;13.390;2023-07-20T06:24:40;100518.31;;;15.87;100.00
36092;BME280;22147;52.388;13.390;2023-07-20T06:27:09;100523.13;;;16.29;100.00
36092;BME280;22147;52.388;13.390;2023-07-20T06:29:37;100520.53;;;16.40;100.00
36092;BME280;22147;52.388;13.390;2023-07-20T06:32:06;100523.91;;;16.26;100.00
36092;BME280;22147;52.388;13.390;2023-07-20T06:34:37;100520.47;;;15.94;100.00
36092;BME280;22147;52.388;13.390;2023-07-20T06:37:05;100522.00;;;15.91;100.00
36092;BME280;22147;52.388;13.390;2023-07-20T06:39:34;100525.13;;;15.86;100.00
36092;BME280;22147;52.388;13.390;2023-07-20T06:42:07;100522.16;;;15.79;100.00
36092;BME280;22147;52.388;13.390;2023-07-20T06:44:37;100538.59;;;15.80;100.00
36092;BME280;22147;52.388;13.390;2023-07-20T06:47:07;100537.66;;;15.92;100.00
36092;BME280;22147;52.388;13.390;2023-07-20T06:49:37;100536.25;;;15.82;100.00
36092;BME280;22147;52.388;13.390;2023-07-20T06:52:08;100533.22;;;15.72;100.00
36092;BME280;22147;52.388;13.390;2023-07-20T06:54:38;100537.25;;;15.74;100.00
36092;BME280;22147;52.388;13.390;2023-07-20T06:57:13;100537.94;;;16.06;100.00
36092;BME280;22147;52.388;13.390;2023-07-20T06:59:49;100546.03;;;16.54;100.00
36092;BME280;22147;52.388;13.390;2023-07-20T07:02:19;100547.19;;;16.99;100.00
36092;BME280;22147;52.388;13.390;2023-07-20T07:04:49;100542.97;;;17.36;100.00
36092;BME280;22147;52.388;13.390;2023-07-20T07:07:29;100544.91;;;17.32;100.00
36092;BME280;22147;52.388;13.390;2023-07-20T07:10:01;100545.66;;;17.28;100.00
36092;BME280;22147;52.388;13.390;2023-07-20T07:12:35;100545.00;;;17.12;100.00
36092;BME280;22147;52.388;13.390;2023-07-20T07:15:09;100538.69;;;16.92;100.00
36092;BME280;22147;52.388;13.390;2023-07-20T07:17:40;100543.78;;;16.86;100.00
36092;BME280;22147;52.388;13.390;2023-07-20T07:20:11;100541.13;;;16.94;100.00
36092;BME280;22147;52.388;13.390;2023-07-20T07:22:50;100539.28;;;17.05;100.00
36092;BME280;22147;52.388;13.390;2023-07-20T07:25:21;100547.97;;;17.23;100.00
36092;BME280;22147;52.388;13.390;2023-07-20T07:27:53;100546.91;;;17.04;100.00
36092;BME280;22147;52.388;13.390;2023-07-20T07:30:25;100552.06;;;16.79;100.00
36092;BME280;22147;52.388;13.390;2023-07-20T07:32:55;100554.97;;;16.83;100.00
36092;BME280;22147;52.388;13.390;2023-07-20T07:35:26;100552.38;;;16.97;100.00
36092;BME280;22147;52.388;13.390;2023-07-20T07:37:56;100551.91;;;17.18;100.00
36092;BME280;22147;52.388;13.390;2023-07-20T07:40:42;100554.41;;;17.23;100.00
36092;BME280;22147;52.388;13.390;2023-07-20T07:43:12;100554.44;;;17.27;100.00
36092;BME280;22147;52.388;13.390;2023-07-20T07:45:46;100559.09;;;17.42;100.00
36092;BME280;22147;52.388;13.390;2023-07-20T07:48:16;100555.94;;;17.47;100.00
36092;BME280;22147;52.388;13.390;2023-07-20T07:50:47;100558.69;;;17.44;99.81
36092;BME280;22147;52.388;13.390;2023-07-20T07:53:17;100565.25;;;17.25;99.35
36092;BME280;22147;52.388;13.390;2023-07-20T07:55:48;100549.66;;;17.27;100.00
36092;BME280;22147;52.388;13.390;2023-07-20T07:58:19;100563.84;;;17.38;100.00
36092;BME280;22147;52.388;13.390;2023-07-20T08:00:49;100563.66;;;17.54;100.00
36092;BME280;22147;52.388;13.390;2023-07-20T08:03:19;100554.41;;;17.80;100.00
36092;BME280;22147;52.388;13.390;2023-07-20T08:05:50;100564.72;;;17.99;95.50
36092;BME280;22147;52.388;13.390;2023-07-20T08:08:20;100566.50;;;18.15;95.99
36092;BME280;22147;52.388;13.390;2023-07-20T08:10:54;100557.69;;;18.20;96.36
36092;BME280;22147;52.388;13.390;2023-07-20T08:13:24;100565.16;;;18.05;90.08
36092;BME280;22147;52.388;13.390;2023-07-20T08:15:53;100568.88;;;18.13;89.03
36092;BME280;22147;52.388;13.390;2023-07-20T08:18:21;100566.13;;;18.20;94.70
36092;BME280;22147;52.388;13.390;2023-07-20T08:20:50;100575.78;;;18.22;93.45
36092;BME280;22147;52.388;13.390;2023-07-20T08:23:19;100581.16;;;18.01;93.65
36092;BME280;22147;52.388;13.390;2023-07-20T08:25:46;100579.63;;;17.77;95.96
36092;BME280;22147;52.388;13.390;2023-07-20T08:28:16;100586.25;;;17.35;95.79
36092;BME280;22147;52.388;13.390;2023-07-20T08:30:48;100584.44;;;17.23;95.93
36092;BME280;22147;52.388;13.390;2023-07-20T08:33:19;100588.13;;;17.54;91.67
36092;BME280;22147;52.388;13.390;2023-07-20T08:35:50;100590.00;;;17.99;90.51
36092;BME280;22147;52.388;13.390;2023-07-20T08:38:20;100598.28;;;18.60;87.71
36092;BME280;22147;52.388;13.390;2023-07-20T08:40:53;100585.28;;;18.82;84.06
36092;BME280;22147;52.388;13.390;2023-07-20T08:43:28;100589.38;;;18.91;83.86
36092;BME280;22147;52.388;13.390;2023-07-20T08:46:01;100593.94;;;18.66;83.17
36092;BME280;22147;52.388;13.390;2023-07-20T08:48:33;100596.22;;;18.53;85.26
36092;BME280;22147;52.388;13.390;2023-07-20T08:51:04;100590.47;;;18.42;85.70
36092;BME280;22147;52.388;13.390;2023-07-20T08:53:35;100589.94;;;18.67;87.87
36092;BME280;22147;52.388;13.390;2023-07-20T08:56:08;100585.38;;;18.92;83.61
36092;BME280;22147;52.388;13.390;2023-07-20T08:58:43;100590.44;;;18.76;81.44
36092;BME280;22147;52.388;13.390;2023-07-20T09:01:14;100592.81;;;18.33;81.27
36092;BME280;22147;52.388;13.390;2023-07-20T09:03:48;100594.03;;;18.39;84.53
36092;BME280;22147;52.388;13.390;2023-07-20T09:06:19;100590.13;;;18.85;81.06
36092;BME280;22147;52.388;13.390;2023-07-20T09:08:49;100594.53;;;19.30;80.49
36092;BME280;22147;52.388;13.390;2023-07-20T09:11:20;100588.50;;;19.32;78.28
36092;BME280;22147;52.388;13.390;2023-07-20T09:14:05;100588.22;;;18.96;80.99
36092;BME280;22147;52.388;13.390;2023-07-20T09:16:55;100587.34;;;18.88;83.22
36092;BME280;22147;52.388;13.390;2023-07-20T09:19:26;100592.13;;;19.32;80.90
36092;BME280;22147;52.388;13.390;2023-07-20T09:21:56;100594.53;;;19.34;77.18
36092;BME280;22147;52.388;13.390;2023-07-20T09:24:28;100591.53;;;19.09;80.04
36092;BME280;22147;52.388;13.390;2023-07-20T09:27:01;100594.69;;;19.00;79.70
36092;BME280;22147;52.388;13.390;2023-07-20T09:29:35;100598.09;;;18.79;82.39
36092;BME280;22147;52.388;13.390;2023-07-20T09:32:26;100601.03;;;18.52;80.63
36092;BME280;22147;52.388;13.390;2023-07-20T09:34:56;100604.28;;;18.55;79.76
36092;BME280;22147;52.388;13.390;2023-07-20T09:37:59;100593.81;;;18.92;83.66
36092;BME280;22147;52.388;13.390;2023-07-20T09:40:37;100601.94;;;19.05;76.78
36092;BME280;22147;52.388;13.390;2023-07-20T09:43:15;100594.91;;;19.29;77.61
36092;BME280;22147;52.388;13.390;2023-07-20T09:45:50;100583.09;;;19.64;79.31
36092;BME280;22147;52.388;13.390;2023-07-20T09:48:25;100580.91;;;20.09;78.56
36092;BME280;22147;52.388;13.390;2023-07-20T09:50:59;100591.13;;;20.53;69.88
36092;BME280;22147;52.388;13.390;2023-07-20T09:53:33;100592.28;;;20.42;68.14
36092;BME280;22147;52.388;13.390;2023-07-20T09:56:04;100588.16;;;20.10;68.95
36092;BME280;22147;52.388;13.390;2023-07-20T09:58:36;100593.63;;;19.75;68.63
36092;BME280;22147;52.388;13.390;2023-07-20T10:01:10;100591.44;;;19.50;69.78
36092;BME280;22147;52.388;13.390;2023-07-20T10:03:46;100596.72;;;19.59;69.72
36092;BME280;22147;52.388;13.390;2023-07-20T10:06:24;100599.13;;;19.57;70.67
36092;BME280;22147;52.388;13.390;2023-07-20T10:09:01;100589.47;;;19.58;69.90
36092;BME280;22147;52.388;13.390;2023-07-20T10:11:36;100593.53;;;19.60;71.10
36092;BME280;22147;52.388;13.390;2023-07-20T10:14:17;100588.66;;;19.57;68.39
36092;BME280;22147;52.388;13.390;2023-07-20T10:16:51;100593.75;;;19.33;69.20
36092;BME280;22147;52.388;13.390;2023-07-20T10:19:44;100593.69;;;19.30;69.53
36092;BME280;22147;52.388;13.390;2023-07-20T10:22:34;100579.63;;;19.30;68.96
36092;BME280;22147;52.388;13.390;2023-07-20T10:25:11;100586.16;;;19.45;69.96
36092;BME280;22147;52.388;13.390;2023-07-20T10:27:44;100585.91;;;19.64;68.83
36092;BME280;22147;52.388;13.390;2023-07-20T10:30:17;100582.41;;;19.85;68.23
36092;BME280;22147;52.388;13.390;2023-07-20T10:32:52;100581.56;;;19.78;68.63
36092;BME280;22147;52.388;13.390;2023-07-20T10:35:22;100580.78;;;19.84;69.71
36092;BME280;22147;52.388;13.390;2023-07-20T10:38:00;100584.00;;;19.79;70.34
36092;BME280;22147;52.388;13.390;2023-07-20T10:40:38;100588.41;;;19.73;68.68
36092;BME280;22147;52.388;13.390;2023-07-20T10:43:10;100576.44;;;19.94;69.44
36092;BME280;22147;52.388;13.390;2023-07-20T10:45:53;100580.13;;;20.16;68.03
36092;BME280;22147;52.388;13.390;2023-07-20T10:48:25;100577.31;;;20.16;65.79
36092;BME280;22147;52.388;13.390;2023-07-20T10:51:20;100584.94;;;20.12;66.49
36092;BME280;22147;52.388;13.390;2023-07-20T10:53:51;100589.31;;;20.02;66.76
36092;BME280;22147;52.388;13.390;2023-07-20T10:56:27;100588.41;;;19.80;67.41
36092;BME280;22147;52.388;13.390;2023-07-20T10:59:00;100588.59;;;19.46;69.91
36092;BME280;22147;52.388;13.390;2023-07-20T11:01:36;100587.16;;;19.11;71.28
36092;BME280;22147;52.388;13.390;2023-07-20T11:04:08;100590.56;;;18.87;72.96
36092;BME280;22147;52.388;13.390;2023-07-20T11:06:43;100595.34;;;18.83;72.67
36092;BME280;22147;52.388;13.390;2023-07-20T11:09:14;100590.38;;;18.69;73.46
36092;BME280;22147;52.388;13.390;2023-07-20T11:11:47;100596.66;;;18.55;74.47
36092;BME280;22147;52.388;13.390;2023-07-20T11:14:26;100593.28;;;18.42;76.57
36092;BME280;22147;52.388;13.390;2023-07-20T11:17:15;100600.94;;;18.42;80.49
36092;BME280;22147;52.388;13.390;2023-07-20T11:19:49;100605.22;;;18.32;80.52
36092;BME280;22147;52.388;13.390;2023-07-20T11:22:31;100611.09;;;18.20;80.67
36092;BME280;22147;52.388;13.390;2023-07-20T11:25:01;100614.84;;;17.97;80.11
36092;BME280;22147;52.388;13.390;2023-07-20T11:27:31;100615.75;;;17.78;80.15
36092;BME280;22147;52.388;13.390;2023-07-20T11:30:00;100622.91;;;17.72;79.05
36092;BME280;22147;52.388;13.390;2023-07-20T11:32:28;100618.84;;;17.69;81.19
36092;BME280;22147;52.388;13.390;2023-07-20T11:34:57;100611.25;;;17.74;83.02
36092;BME280;22147;52.388;13.390;2023-07-20T11:37:29;100614.78;;;17.67;85.49
36092;BME280;22147;52.388;13.390;2023-07-20T11:39:59;100612.75;;;17.64;87.72
36092;BME280;22147;52.388;13.390;2023-07-20T11:42:27;100614.75;;;17.63;88.73
36092;BME280;22147;52.388;13.390;2023-07-20T11:45:05;100611.53;;;17.65;88.97
36092;BME280;22147;52.388;13.390;2023-07-20T11:47:40;100600.38;;;17.68;87.55
36092;BME280;22147;52.388;13.390;2023-07-20T11:50:12;100601.13;;;17.92;87.06
36092;BME280;22147;52.388;13.390;2023-07-20T11:52:44;100599.31;;;18.07;85.13
36092;BME280;22147;52.388;13.390;2023-07-20T11:55:14;100599.84;;;18.54;86.82
36092;BME280;22147;52.388;13.390;2023-07-20T11:58:05;100602.69;;;18.98;83.72
36092;BME280;22147;52.388;13.390;2023-07-20T12:00:37;100594.38;;;19.12;79.75
36092;BME280;22147;52.388;13.390;2023-07-20T12:03:09;100606.53;;;19.24;78.30
36092;BME280;22147;52.388;13.390;2023-07-20T12:05:41;100602.56;;;19.28;76.22
36092;BME280;22147;52.388;13.390;2023-07-20T12:08:29;100599.28;;;19.23;76.11
36092;BME280;22147;52.388;13.390;2023-07-20T12:10:59;100613.28;;;19.12;75.96
36092;BME280;22147;52.388;13.390;2023-07-20T12:13:40;100602.38;;;19.07;76.44
36092;BME280;22147;52.388;13.390;2023-07-20T12:16:16;100599.13;;;19.05;78.50
36092;BME280;22147;52.388;13.390;2023-07-20T12:18:47;100606.16;;;19.25;77.45
36092;BME280;22147;52.388;13.390;2023-07-20T12:21:19;100604.13;;;19.26;76.43
36092;BME280;22147;52.388;13.390;2023-07-20T12:23:49;100608.13;;;19.21;78.21
36092;BME280;22147;52.388;13.390;2023-07-20T12:26:20;100607.28;;;19.14;78.30
36092;BME280;22147;52.388;13.390;2023-07-20T12:28:52;100598.09;;;19.24;76.52
36092;BME280;22147;52.388;13.390;2023-07-20T12:31:23;100596.94;;;19.32;77.11
36092;BME280;22147;52.388;13.390;2023-07-20T12:33:54;100608.72;;;19.48;75.70
36092;BME280;22147;52.388;13.390;2023-07-20T12:36:27;100598.69;;;19.47;73.37
36092;BME280;22147;52.388;13.390;2023-07-20T12:38:56;100615.56;;;19.47;71.01
36092;BME280;22147;52.388;13.390;2023-07-20T12:41:28;100606.94;;;19.26;71.33
36092;BME280;22147;52.388;13.390;2023-07-20T12:43:58;100600.59;;;19.36;70.43
36092;BME280;22147;52.388;13.390;2023-07-20T12:46:28;100597.69;;;19.81;72.63
36092;BME280;22147;52.388;13.390;2023-07-20T12:48:59;100600.31;;;20.29;71.46
36092;BME280;22147;52.388;13.390;2023-07-20T12:51:28;100597.88;;;20.27;66.94
36092;BME280;22147;52.388;13.390;2023-07-20T12:53:58;100601.00;;;20.01;67.17
36092;BME280;22147;52.388;13.390;2023-07-20T12:56:28;100595.31;;;19.93;68.07
36092;BME280;22147;52.388;13.390;2023-07-20T12:59:00;100588.47;;;19.91;66.90
36092;BME280;22147;52.388;13.390;2023-07-20T13:01:31;100601.31;;;19.85;68.11
36092;BME280;22147;52.388;13.390;2023-07-20T13:04:00;100595.94;;;19.62;67.85